avis per tempestes more information blitzortung!


avis per Pluja more information rain snow radar


Visita la nostra xarxa de llocs de meteo:

Template documentation
and downloads

And another site



Thunderstorms From: 20-07-2018 17:00 Until: 21-07-2018 01:59 warning for: Thunderstorms Level: Yellow info button
Rain From: 20-07-2018 17:00 Until: 21-07-2018 01:59 warning for: Rain Level: Yellow info button

Pagina Historial Weather Underground text

Diari Resum May 15, 2016 Unitats:  Mètric    Imperial   Tant
« Previous Dia
SegĂźent Dia »
Diari Setmana Mensual Anual Personalitzada
  Maxima: Minima: Media:
Temperatura: -17.8 °C -10.7 °C -7.6 °C
Punt de rosada: -17.8 °C -12.7 °C -11.9 °C
Humitat: Humidity % 40 % 61 %
Wind Speed: 0 km/h 0 km/h 8.5 km/h
RĂ fegues de vent: 0 km/h - -
Vent:- - ESE
Pression baro: 0 hPa 34428.8 hPa -
Precipitacions: 0 mm    
Historical Graphs
 
 
Dades de taula per May 15, 2016
Temps Temperatura Punt de rosada Pression baro Vent Wind Speed RĂ fegues de vent Humitat Rainfall Rate (Hourly)
-17.8 °C -17.8 °C 0 hPa Calm     Humidity % 0 mm
00:03 -9.6 °C -12.3 °C 34428.8 hPa WSW 3.1 km/h   72 % 0 mm
00:08 -9.6 °C -12.2 °C 34428.8 hPa Calm     73 % 0 mm
00:14 -9.5 °C -12.3 °C 34428.8 hPa West 3.1 km/h   72 % 0 mm
00:19 -9.5 °C -12.2 °C 34428.8 hPa Calm     73 % 0 mm
00:24 -9.6 °C -12.4 °C 34428.8 hPa SW 6 km/h 6 km/h 71 % 0 mm
00:29 -9.7 °C -12.5 °C 34428.8 hPa SW 6 km/h   72 % 0 mm
00:34 -9.8 °C -12.5 °C 34428.8 hPa SW 6 km/h 6 km/h 73 % 0 mm
00:39 -9.8 °C -12.5 °C 34462.7 hPa SW 6 km/h 6 km/h 73 % 0 mm
00:44 -9.8 °C -12.3 °C 34462.7 hPa Calm     75 % 0 mm
00:49 -9.8 °C -12.3 °C 34462.7 hPa ESE 3.7 km/h 3.7 km/h 75 % 0 mm
00:54 -9.8 °C -12.2 °C 34462.7 hPa ENE 6 km/h 6 km/h 75 % 0 mm
00:59 -9.7 °C -12.2 °C 34462.7 hPa ENE 3.1 km/h 3.1 km/h 75 % 0 mm
01:04 -9.7 °C -12.2 °C 34462.7 hPa ENE 4.2 km/h 4.2 km/h 75 % 0 mm
01:09 -9.7 °C -12.1 °C 34462.7 hPa NE 3.7 km/h 3.7 km/h 75 % 0 mm
01:14 -9.7 °C -12.1 °C 34462.7 hPa ENE 3.1 km/h 3.1 km/h 75 % 0 mm
01:55 -10.7 °C -12.7 °C 34496.6 hPa ENE 2.6 km/h 7.7 km/h 79 % 0 mm
02:05 -10.7 °C -12.7 °C 34496.6 hPa NE 2.6 km/h 5.1 km/h 79 % 0 mm
02:15 -10.6 °C -12.6 °C 34496.6 hPa Calm   5.1 km/h 79 % 0 mm
02:25 -10.6 °C -12.6 °C 34496.6 hPa Calm   5.1 km/h 78 % 0 mm
02:35 -10.4 °C -12.6 °C 34496.6 hPa Calm   5.1 km/h 78 % 0 mm
02:45 -10.3 °C -12.4 °C 34496.6 hPa Calm   7.7 km/h 78 % 0 mm
02:55 -10.1 °C -12.3 °C 34496.6 hPa Calm   5.1 km/h 77 % 0 mm
03:05 -9.9 °C -12.3 °C 34496.6 hPa NNE 2.6 km/h 5.1 km/h 76 % 0 mm
03:15 -9.8 °C -12.2 °C 34496.6 hPa NE 5.1 km/h 7.7 km/h 76 % 0 mm
03:25 -9.7 °C -12.2 °C 34496.6 hPa ENE 7.7 km/h 15.6 km/h 75 % 0 mm
03:35 -9.4 °C -12.1 °C 34496.6 hPa NE 5.1 km/h 7.7 km/h 73 % 0 mm
03:45 -9.5 °C -12.2 °C 34496.6 hPa NE 5.1 km/h 10.3 km/h 73 % 0 mm
04:05 -9.1 °C -12 °C 34533.8 hPa NE 2.6 km/h 10.3 km/h 71 % 0 mm
04:15 -8.9 °C -12 °C 34533.8 hPa NE 5.1 km/h 7.7 km/h 70 % 0 mm
04:25 -8.9 °C -12.1 °C 34533.8 hPa NE 7.7 km/h 10.3 km/h 69 % 0 mm
04:35 -8.6 °C -11.7 °C 34533.8 hPa NE 5.1 km/h 10.3 km/h 69 % 0 mm
04:45 -8.4 °C -11.8 °C 34533.8 hPa NE 5.1 km/h 10.3 km/h 68 % 0 mm
04:55 -8.4 °C -11.8 °C 34533.8 hPa NE 7.7 km/h 10.3 km/h 67 % 0 mm
05:05 -7.9 °C -11.5 °C 34533.8 hPa NE 2.6 km/h 7.7 km/h 66 % 0 mm
05:15 -7.7 °C -11.6 °C 34533.8 hPa ENE 5.1 km/h 7.7 km/h 64 % 0 mm
05:25 -7.6 °C -11.4 °C 34496.6 hPa ENE 5.1 km/h 7.7 km/h 64 % 0 mm
05:35 -7.3 °C -11.2 °C 34496.6 hPa ENE 5.1 km/h 10.3 km/h 64 % 0 mm
05:45 -7.3 °C -11.3 °C 34533.8 hPa ENE 12.9 km/h 12.9 km/h 63 % 0 mm
05:55 -7.4 °C -11.4 °C 34496.6 hPa ENE 5.1 km/h 10.3 km/h 63 % 0 mm
06:05 -7.1 °C -11.4 °C 34496.6 hPa ENE 7.7 km/h 12.9 km/h 61 % 0 mm
06:15 -6.9 °C -11.5 °C 34533.8 hPa East 7.7 km/h 7.7 km/h 59 % 0 mm
06:25 -6.4 °C -11.2 °C 34496.6 hPa East 7.7 km/h 10.3 km/h 58 % 0 mm
06:35 -6.4 °C -11.4 °C 34496.6 hPa SE 7.7 km/h 10.3 km/h 56 % 0 mm
06:45 -5.9 °C -11.8 °C 34496.6 hPa SSW 15.6 km/h 15.6 km/h 51 % 0 mm
06:55 -5.7 °C -12.1 °C 34496.6 hPa WSW 7.7 km/h 12.9 km/h 48 % 0 mm
07:05 -5.3 °C -11.9 °C 34496.6 hPa West 7.7 km/h 15.6 km/h 47 % 0 mm
07:15 -5.1 °C -11.7 °C 34496.6 hPa SW 5.1 km/h 12.9 km/h 47 % 0 mm
07:25 -5.2 °C -12.1 °C 34496.6 hPa SW 7.7 km/h 20.8 km/h 45 % 0 mm
07:35 -4.9 °C -12.3 °C 34496.6 hPa SW 12.9 km/h 15.6 km/h 43 % 0 mm
07:55 -4.6 °C -12 °C 34496.6 hPa WSW 7.7 km/h 10.3 km/h 43 % 0 mm
08:05 -4.4 °C -11.8 °C 34496.6 hPa WNW 7.7 km/h 10.3 km/h 43 % 0 mm
08:15 -4.1 °C -11.5 °C 34496.6 hPa SW 7.7 km/h 10.3 km/h 43 % 0 mm
08:25 -4.2 °C -11.7 °C 34496.6 hPa WSW 5.1 km/h 15.6 km/h 43 % 0 mm
08:35 -4.4 °C -12.1 °C 34496.6 hPa NW 5.1 km/h 10.3 km/h 42 % 0 mm
08:45 -4.7 °C -12.3 °C 34462.7 hPa NNW 2.6 km/h 10.3 km/h 42 % 0 mm
08:55 -5.1 °C -12.2 °C 34496.6 hPa East 7.7 km/h 18.2 km/h 44 % 0 mm
09:05 -5.2 °C -12.1 °C 34496.6 hPa East 12.9 km/h 15.6 km/h 45 % 0 mm
09:15 -5.2 °C -12.1 °C 34428.8 hPa East 18.2 km/h 20.8 km/h 45 % 0 mm
09:25 -5.2 °C -12 °C 34462.7 hPa East 12.9 km/h 33.6 km/h 46 % 0 mm
09:35 -5.1 °C -11.8 °C 34462.7 hPa East 18.2 km/h 18.2 km/h 46 % 0 mm
09:45 -5.1 °C -11.7 °C 34462.7 hPa ENE 20.8 km/h 20.8 km/h 47 % 0 mm
09:55 -5.2 °C -11.8 °C 34462.7 hPa East 15.6 km/h 31.1 km/h 47 % 0 mm
10:05 -5.2 °C -11.8 °C 34462.7 hPa ESE 18.2 km/h 18.2 km/h 47 % 0 mm
10:15 -4.4 °C -11.3 °C 34462.7 hPa SE 7.7 km/h 10.3 km/h 46 % 0 mm
10:25 -4.5 °C -11.3 °C 34462.7 hPa SSE 12.9 km/h 15.6 km/h 46 % 0 mm
10:35 -4.3 °C -11.2 °C 34462.7 hPa SSE 5.1 km/h 18.2 km/h 46 % 0 mm
10:45 -3.7 °C -11 °C 34428.8 hPa SSW 12.9 km/h 12.9 km/h 44 % 0 mm
10:55 -3.9 °C -11.3 °C 34462.7 hPa SSW 12.9 km/h 15.6 km/h 43 % 0 mm
11:05 -3.9 °C -11.6 °C 34462.7 hPa SW 12.9 km/h 15.6 km/h 42 % 0 mm
11:15 -3.5 °C -11.4 °C 34462.7 hPa WSW 12.9 km/h 12.9 km/h 41 % 0 mm
11:25 -3.4 °C -11.3 °C 34428.8 hPa SW 2.6 km/h 25.9 km/h 41 % 0 mm
11:35 -3.4 °C -11.3 °C 34428.8 hPa SSW 2.6 km/h 10.3 km/h 41 % 0 mm
11:45 -4.1 °C -12.1 °C 34462.7 hPa SW 12.9 km/h 15.6 km/h 40 % 0 mm
11:55 -4.6 °C -11.8 °C 34462.7 hPa ENE 15.6 km/h 15.6 km/h 44 % 0 mm
12:05 -4.8 °C -11.8 °C 34462.7 hPa East 18.2 km/h 18.2 km/h 45 % 0 mm
12:15 -5 °C -11.8 °C 34462.7 hPa East 15.6 km/h 25.9 km/h 46 % 0 mm
12:25 -5.2 °C -11.6 °C 34462.7 hPa East 15.6 km/h 28.5 km/h 48 % 0 mm
12:35 -5.3 °C -11.8 °C 34462.7 hPa East 18.2 km/h 25.9 km/h 48 % 0 mm
12:45 -5.5 °C -11.9 °C 34462.7 hPa ENE 23.3 km/h 23.3 km/h 48 % 0 mm
12:55 -5.6 °C -11.8 °C 34462.7 hPa East 18.2 km/h 28.5 km/h 49 % 0 mm
13:05 -5.8 °C -12 °C 34462.7 hPa ESE 20.8 km/h 31.1 km/h 49 % 0 mm
13:15 -6.1 °C -12.1 °C 34428.8 hPa ESE 25.9 km/h 25.9 km/h 50 % 0 mm
13:25 -6.3 °C -12.2 °C 34462.7 hPa ESE 20.8 km/h 38.8 km/h 51 % 0 mm
13:35 -6.3 °C -12 °C 34462.7 hPa ESE 18.2 km/h 20.8 km/h 52 % 0 mm
13:45 -6.6 °C -12.3 °C 34462.7 hPa ESE 20.8 km/h 33.6 km/h 52 % 0 mm
13:55 -6.8 °C -12.3 °C 34496.6 hPa East 18.2 km/h 31.1 km/h 53 % 0 mm
14:05 -6.9 °C -12.3 °C 34496.6 hPa East 15.6 km/h 28.5 km/h 53 % 0 mm
14:15 -7 °C -12.3 °C 34462.7 hPa East 15.6 km/h 31.1 km/h 54 % 0 mm
14:25 -7.1 °C -12.3 °C 34462.7 hPa East 15.6 km/h 20.8 km/h 54 % 0 mm
14:35 -7.2 °C -12.3 °C 34462.7 hPa East 18.2 km/h 28.5 km/h 55 % 0 mm
14:45 -7.2 °C -12.2 °C 34496.6 hPa East 15.6 km/h 20.8 km/h 56 % 0 mm
14:55 -7.3 °C -12 °C 34496.6 hPa East 18.2 km/h 25.9 km/h 58 % 0 mm
15:05 -7.4 °C -12 °C 34496.6 hPa East 12.9 km/h 23.3 km/h 59 % 0 mm
15:15 -7.5 °C -12.1 °C 34496.6 hPa East 7.7 km/h 18.2 km/h 59 % 0 mm
15:25 -7.6 °C -12 °C 34496.6 hPa ESE 7.7 km/h 20.8 km/h 60 % 0 mm
15:35 -7.7 °C -11.9 °C 34496.6 hPa ESE 7.7 km/h 15.6 km/h 61 % 0 mm
15:45 -7.8 °C -11.9 °C 34496.6 hPa East 7.7 km/h 20.8 km/h 62 % 0 mm
15:55 -7.8 °C -11.9 °C 34496.6 hPa East 5.1 km/h 12.9 km/h 62 % 0 mm
19:45 -8.9 °C -11.8 °C 34601.5 hPa ESE 7.7 km/h 15.6 km/h 72 % 0 mm
19:55 -8.9 °C -11.6 °C 34601.5 hPa ESE 5.1 km/h 15.6 km/h 73 % 0 mm
20:05 -8.9 °C -11.6 °C 34601.5 hPa Calm   5.1 km/h 73 % 0 mm
20:25 -8.9 °C -11.6 °C 34601.5 hPa Calm     73 % 0 mm
20:35 -8.9 °C -11.6 °C 34601.5 hPa Calm     73 % 0 mm
20:45 -8.9 °C -11.5 °C 34601.5 hPa Calm     74 % 0 mm
20:59 -7.9 °C -11.9 °C 34496.6 hPa NE 15 km/h 15 km/h 63 % 0 mm
21:04 -7.9 °C -11.9 °C 34496.6 hPa ESE 11.9 km/h 11.9 km/h 63 % 0 mm
21:05 -9.2 °C -11.8 °C 34601.5 hPa Calm     74 % 0 mm
21:09 -8 °C -12 °C 34533.8 hPa East 16.1 km/h 16.1 km/h 63 % 0 mm
21:14 -8.1 °C -12 °C 34533.8 hPa East 16.1 km/h 16.1 km/h 63 % 0 mm
21:15 -9.2 °C -11.7 °C 34601.5 hPa Calm     75 % 0 mm
21:20 -8.1 °C -12 °C 34533.8 hPa East 9 km/h 9.3 km/h 63 % 0 mm
21:25 -8.1 °C -12 °C 34533.8 hPa East 7.7 km/h 7.7 km/h 63 % 0 mm
21:30 -8.1 °C -11.9 °C 34533.8 hPa East 9 km/h 9.3 km/h 64 % 0 mm
21:35 -8.1 °C -11.9 °C 34533.8 hPa East 7.7 km/h 7.7 km/h 64 % 0 mm
21:40 -8.1 °C -11.9 °C 34496.6 hPa East 7.7 km/h 7.7 km/h 64 % 0 mm
21:45 -8.2 °C -12 °C 34496.6 hPa East 7.7 km/h 7.7 km/h 64 % 0 mm
21:50 -8.2 °C -12 °C 34496.6 hPa East 7.7 km/h 7.7 km/h 64 % 0 mm
21:55 -8.2 °C -11.8 °C 34533.8 hPa East 7.7 km/h 7.7 km/h 65 % 0 mm
22:00 -8.2 °C -11.8 °C 34533.8 hPa East 7.7 km/h 7.7 km/h 65 % 0 mm
22:05 -9.4 °C -11.7 °C 34601.5 hPa Calm     76 % 0 mm
22:10 -8.2 °C -11.8 °C 34533.8 hPa East 7.7 km/h 7.7 km/h 65 % 0 mm
22:15 -8.2 °C -11.8 °C 34533.8 hPa East 7.7 km/h 7.7 km/h 65 % 0 mm
22:20 -8.2 °C -11.8 °C 34533.8 hPa East 7.7 km/h 7.7 km/h 65 % 0 mm
22:25 -8.2 °C -11.8 °C 34533.8 hPa East 7.7 km/h 7.7 km/h 65 % 0 mm
22:30 -8.2 °C -11.8 °C 34533.8 hPa East 7.7 km/h 7.7 km/h 66 % 0 mm
22:35 -8.2 °C -11.8 °C 34533.8 hPa East 7.7 km/h 7.7 km/h 66 % 0 mm
22:40 -8.3 °C -11.8 °C 34533.8 hPa East 7.7 km/h 7.7 km/h 66 % 0 mm
22:45 -8.3 °C -11.8 °C 34533.8 hPa East 9 km/h 9.3 km/h 66 % 0 mm
22:50 -8.3 °C -11.9 °C 34533.8 hPa East 9 km/h 9.3 km/h 66 % 0 mm
22:55 -8.4 °C -11.8 °C 34533.8 hPa East 7.7 km/h 7.7 km/h 67 % 0 mm
23:00 -8.4 °C -11.7 °C 34533.8 hPa East 7.7 km/h 7.7 km/h 68 % 0 mm
23:05 -8.4 °C -11.8 °C 34533.8 hPa East 7.7 km/h 7.7 km/h 68 % 0 mm
23:10 -8.5 °C -11.8 °C 34533.8 hPa East 7.7 km/h 7.7 km/h 68 % 0 mm
23:15 -8.6 °C -11.8 °C 34533.8 hPa East 7.7 km/h 7.7 km/h 68 % 0 mm
23:20 -8.6 °C -11.8 °C 34533.8 hPa East 7.7 km/h 7.7 km/h 68 % 0 mm
23:25 -8.6 °C -11.8 °C 34567.7 hPa East 7.7 km/h 7.7 km/h 69 % 0 mm
23:30 -8.7 °C -11.8 °C 34567.7 hPa East 7.7 km/h 7.7 km/h 69 % 0 mm
23:35 -8.7 °C -11.8 °C 34567.7 hPa East 9 km/h 9.3 km/h 69 % 0 mm
23:40 -8.7 °C -11.9 °C 34567.7 hPa East 9 km/h 9.3 km/h 69 % 0 mm
23:45 -8.7 °C -11.8 °C 34567.7 hPa East 9 km/h 9.3 km/h 70 % 0 mm
23:50 -8.8 °C -11.8 °C 34567.7 hPa East 9 km/h 9.3 km/h 70 % 0 mm
23:55 -8.8 °C -11.8 °C 34567.7 hPa East 9 km/h 9.3 km/h 70 % 0 mm
Meteo Sesrovires
Elogis d' Weather Underground - 2 mb

Guio original per  Jim McMurry - jmcmurry@mwt.net Adaptat per a la plantilla per  Wim van der Kuil - Leuven-Template.eu

Trobareu la nostra informacio del temps tambe a:

Weather Underground

AWEKAS